createdAt,value
2019-05-06T00:00:01.858Z,40.42
2019-05-06T00:02:34.168Z,39.97
2019-05-06T00:05:07.028Z,40.03
2019-05-06T00:07:39.316Z,39.46
2019-05-06T00:10:26.343Z,40.17
2019-05-06T00:12:58.807Z,40.31
2019-05-06T00:15:31.001Z,40.19
2019-05-06T00:18:04.489Z,40.20
2019-05-06T00:20:37.413Z,40.05
2019-05-06T00:23:15.101Z,40.34
2019-05-06T00:26:06.577Z,40.41
2019-05-06T00:28:44.734Z,40.32
2019-05-06T00:31:18.909Z,40.32
2019-05-06T00:33:53.834Z,40.51
2019-05-06T00:36:25.933Z,39.98
2019-05-06T00:39:01.684Z,39.98
2019-05-06T00:41:36.474Z,39.93
2019-05-06T00:44:06.716Z,39.88
2019-05-06T00:46:37.965Z,40.23
2019-05-06T00:49:10.325Z,39.98
2019-05-06T00:51:45.894Z,39.79
2019-05-06T00:54:21.600Z,40.19
2019-05-06T00:56:54.338Z,39.78
2019-05-06T00:59:26.871Z,39.78
2019-05-06T01:01:58.873Z,40.06
2019-05-06T01:04:30.910Z,38.56
2019-05-06T01:07:03.908Z,40.10
2019-05-06T01:09:36.913Z,40.03
2019-05-06T01:12:10.542Z,39.63
2019-05-06T01:14:47.649Z,40.03
2019-05-06T01:17:19.665Z,40.03
2019-05-06T01:19:53.971Z,39.96
2019-05-06T01:22:26.098Z,40.04
2019-05-06T01:24:58.293Z,38.86
2019-05-06T01:27:30.608Z,39.41
2019-05-06T01:30:04.380Z,39.75
2019-05-06T01:32:37.318Z,39.75
2019-05-06T01:35:09.873Z,39.98
2019-05-06T01:37:44.293Z,39.79
2019-05-06T01:40:38.508Z,40.06
2019-05-06T01:43:18.324Z,39.10
2019-05-06T01:45:50.873Z,39.63
2019-05-06T01:48:41.833Z,39.77
2019-05-06T01:51:14.353Z,39.90
2019-05-06T01:53:47.101Z,39.40
2019-05-06T01:56:19.847Z,39.13
2019-05-06T01:58:53.596Z,39.47
2019-05-06T02:01:25.202Z,39.82
2019-05-06T02:03:57.848Z,39.67
2019-05-06T02:06:29.884Z,39.72
2019-05-06T02:09:01.872Z,39.93
2019-05-06T02:11:34.094Z,39.81
2019-05-06T02:14:06.837Z,39.46
2019-05-06T02:16:39.331Z,39.39
2019-05-06T02:19:11.875Z,39.14
2019-05-06T02:22:13.682Z,39.76
2019-05-06T02:24:49.701Z,39.41
2019-05-06T02:27:20.724Z,39.37
2019-05-06T02:29:57.296Z,39.70
2019-05-06T02:32:45.379Z,39.64
2019-05-06T02:35:26.606Z,38.52
2019-05-06T02:37:57.826Z,39.47
2019-05-06T02:40:33.203Z,39.64
2019-05-06T02:43:05.837Z,39.37
2019-05-06T02:45:37.866Z,39.76
2019-05-06T02:48:19.324Z,39.32
2019-05-06T02:51:09.601Z,39.77
2019-05-06T02:53:42.881Z,39.64
2019-05-06T02:56:15.848Z,39.64
2019-05-06T02:58:48.321Z,39.97
2019-05-06T03:01:23.398Z,39.71
2019-05-06T03:03:54.329Z,39.69
2019-05-06T03:06:26.923Z,39.47
2019-05-06T03:08:59.545Z,40.09
2019-05-06T03:11:33.183Z,39.87
2019-05-06T03:14:05.891Z,39.87
2019-05-06T03:16:37.850Z,39.49
2019-05-06T03:19:13.318Z,40.12
2019-05-06T03:22:07.353Z,40.05
2019-05-06T03:25:07.886Z,39.54
2019-05-06T03:27:39.865Z,39.44
2019-05-06T03:30:16.381Z,39.63
2019-05-06T03:33:20.360Z,40.02
2019-05-06T03:35:36.082Z,39.68
2019-05-06T03:37:54.876Z,39.75
2019-05-06T03:40:27.314Z,39.75
2019-05-06T03:43:02.504Z,38.54
2019-05-06T03:45:45.315Z,39.70
2019-05-06T03:48:23.959Z,39.92
2019-05-06T03:50:56.497Z,39.01
2019-05-06T03:53:33.398Z,39.81
2019-05-06T03:56:05.315Z,39.65
2019-05-06T03:58:39.315Z,39.75
2019-05-06T04:01:13.169Z,39.24
2019-05-06T04:03:51.555Z,39.77
2019-05-06T04:06:19.589Z,40.26
2019-05-06T04:08:53.006Z,40.18
2019-05-06T04:11:25.878Z,40.18
2019-05-06T04:13:57.849Z,39.67
2019-05-06T04:16:45.571Z,40.08
2019-05-06T04:19:36.584Z,39.70
2019-05-06T04:22:17.139Z,39.70
2019-05-06T04:25:07.397Z,39.73
2019-05-06T04:28:33.942Z,40.14
2019-05-06T04:31:04.306Z,39.71
2019-05-06T04:33:36.369Z,40.25
2019-05-06T04:36:08.060Z,40.43
2019-05-06T04:38:39.785Z,40.07
2019-05-06T04:41:13.668Z,39.41
2019-05-06T04:43:44.752Z,40.23
2019-05-06T04:46:16.883Z,40.17
2019-05-06T04:48:48.758Z,40.09
2019-05-06T04:51:19.576Z,40.08
2019-05-06T04:53:53.677Z,40.24
2019-05-06T04:56:25.339Z,40.24
2019-05-06T04:58:57.072Z,40.41
2019-05-06T05:01:29.136Z,40.37
2019-05-06T05:04:03.303Z,40.36
2019-05-06T05:06:34.293Z,40.03
2019-05-06T05:09:06.745Z,39.50
2019-05-06T05:12:02.746Z,39.73
2019-05-06T05:14:52.050Z,39.99
2019-05-06T05:17:52.574Z,40.27
2019-05-06T05:20:36.502Z,39.53
2019-05-06T05:22:57.803Z,40.29
2019-05-06T05:25:29.807Z,39.97
2019-05-06T05:28:02.199Z,39.84
2019-05-06T05:30:35.318Z,40.25
2019-05-06T05:33:07.812Z,39.53
2019-05-06T05:35:39.867Z,39.54
2019-05-06T05:38:13.095Z,39.81
2019-05-06T05:40:45.806Z,39.82
2019-05-06T05:43:42.301Z,39.41
2019-05-06T05:46:13.862Z,39.22
2019-05-06T05:49:14.046Z,39.05
2019-05-06T05:51:46.049Z,38.85
2019-05-06T05:54:18.324Z,38.75
2019-05-06T05:56:52.746Z,38.86
2019-05-06T05:59:24.879Z,39.00
2019-05-06T06:01:56.927Z,39.00
2019-05-06T06:04:29.375Z,38.80
2019-05-06T06:07:02.742Z,38.21
2019-05-06T06:09:41.912Z,38.44
2019-05-06T06:12:15.155Z,37.35
2019-05-06T06:14:56.318Z,37.82
2019-05-06T06:17:42.664Z,38.19
2019-05-06T06:20:32.727Z,38.49
2019-05-06T06:23:14.325Z,38.19
2019-05-06T06:25:46.807Z,38.27
2019-05-06T06:28:18.826Z,38.01
2019-05-06T06:31:03.448Z,37.36
2019-05-06T06:33:35.868Z,37.91
2019-05-06T06:36:24.113Z,37.43
2019-05-06T06:39:22.883Z,37.62
2019-05-06T06:41:54.870Z,37.41
2019-05-06T06:44:29.539Z,37.51
2019-05-06T06:47:02.177Z,37.23
2019-05-06T06:49:34.676Z,37.85
2019-05-06T06:52:11.110Z,37.43
2019-05-06T06:54:43.611Z,37.15
2019-05-06T06:57:33.916Z,37.66
2019-05-06T07:00:22.294Z,37.66
2019-05-06T07:03:21.746Z,36.96
2019-05-06T07:06:07.541Z,37.22
2019-05-06T07:08:39.828Z,37.38
2019-05-06T07:11:13.050Z,36.65
2019-05-06T07:13:55.889Z,36.85
2019-05-06T07:16:27.818Z,36.99
2019-05-06T07:19:02.969Z,37.26
2019-05-06T07:21:56.567Z,37.67
2019-05-06T07:24:29.100Z,37.13
2019-05-06T07:27:07.290Z,37.13
2019-05-06T07:29:47.734Z,37.36
2019-05-06T07:32:14.321Z,36.56
2019-05-06T07:34:46.911Z,37.42
2019-05-06T07:37:18.859Z,37.29
2019-05-06T07:39:52.865Z,37.05
2019-05-06T07:42:32.178Z,36.38
2019-05-06T07:45:17.542Z,37.21
2019-05-06T07:47:53.393Z,37.39
2019-05-06T07:50:25.829Z,37.39
2019-05-06T07:53:10.658Z,37.14
2019-05-06T07:55:42.804Z,37.39
2019-05-06T07:58:15.030Z,37.39
2019-05-06T08:00:47.330Z,37.28
2019-05-06T08:03:22.113Z,37.06
2019-05-06T08:05:58.389Z,37.00
2019-05-06T08:08:27.864Z,37.17
2019-05-06T08:10:59.898Z,37.17
2019-05-06T08:13:32.422Z,36.93
2019-05-06T08:16:04.964Z,37.11
2019-05-06T08:18:39.283Z,36.50
2019-05-06T08:21:22.366Z,37.08
2019-05-06T08:23:54.901Z,36.92
2019-05-06T08:26:27.313Z,36.30
2019-05-06T08:28:59.859Z,36.89
2019-05-06T08:31:32.785Z,37.13
2019-05-06T08:34:05.040Z,37.17
2019-05-06T08:36:54.685Z,35.80
2019-05-06T08:39:25.725Z,36.89
2019-05-06T08:41:57.919Z,37.23
2019-05-06T08:44:32.121Z,36.48
2019-05-06T08:47:04.346Z,36.90
2019-05-06T08:49:55.074Z,36.90
2019-05-06T08:52:32.520Z,36.87
2019-05-06T08:55:04.971Z,36.80
2019-05-06T08:57:36.919Z,36.67
2019-05-06T09:00:08.878Z,37.16
2019-05-06T09:02:42.519Z,37.16
2019-05-06T09:05:14.882Z,36.84
2019-05-06T09:07:47.755Z,36.84
2019-05-06T09:10:18.719Z,36.20
2019-05-06T09:12:52.499Z,36.86
2019-05-06T09:15:24.850Z,36.61
2019-05-06T09:17:56.849Z,36.53
2019-05-06T09:20:28.891Z,36.80
2019-05-06T09:23:04.530Z,36.66
2019-05-06T09:25:36.068Z,37.21
2019-05-06T09:28:17.097Z,37.21
2019-05-06T09:30:57.470Z,36.90
2019-05-06T09:33:35.669Z,36.39
2019-05-06T09:36:06.716Z,36.63
2019-05-06T09:38:37.726Z,35.61
2019-05-06T09:41:09.092Z,35.29
2019-05-06T09:43:43.315Z,34.27
2019-05-06T09:46:15.322Z,34.49
2019-05-06T09:49:12.819Z,36.39
2019-05-06T09:51:45.024Z,36.92
2019-05-06T09:54:42.807Z,36.04
2019-05-06T09:57:23.288Z,35.67
2019-05-06T09:59:56.022Z,36.73
2019-05-06T10:02:28.095Z,36.62
2019-05-06T10:05:03.342Z,37.02
2019-05-06T10:07:35.001Z,36.35
2019-05-06T10:10:07.456Z,37.06
2019-05-06T10:12:41.951Z,35.91
2019-05-06T10:15:14.063Z,36.58
2019-05-06T10:17:47.687Z,36.12
2019-05-06T10:20:22.198Z,37.09
2019-05-06T10:22:53.891Z,37.33
2019-05-06T10:25:25.905Z,37.33
2019-05-06T10:28:02.603Z,37.21
2019-05-06T10:30:34.081Z,37.26
2019-05-06T10:33:09.548Z,36.70
2019-05-06T10:35:42.825Z,37.29
2019-05-06T10:38:52.842Z,37.01
2019-05-06T10:41:27.867Z,37.06
2019-05-06T10:44:36.308Z,37.13
2019-05-06T10:47:08.473Z,37.02
2019-05-06T10:49:42.109Z,36.83
2019-05-06T10:52:28.680Z,36.71
2019-05-06T10:55:03.318Z,36.42
2019-05-06T10:57:43.152Z,36.42
2019-05-06T11:00:15.322Z,36.66
2019-05-06T11:03:08.402Z,36.47
2019-05-06T11:05:42.934Z,36.51
2019-05-06T11:08:15.006Z,36.76
2019-05-06T11:10:46.988Z,36.76
2019-05-06T11:13:19.432Z,36.55
2019-05-06T11:15:52.871Z,35.88
2019-05-06T11:18:26.029Z,36.20
2019-05-06T11:20:58.312Z,36.20
2019-05-06T11:23:30.869Z,36.26
2019-05-06T11:26:03.176Z,36.65
2019-05-06T11:28:55.922Z,36.35
2019-05-06T11:31:46.461Z,36.35
2019-05-06T11:34:42.089Z,36.15
2019-05-06T11:37:23.513Z,36.25
2019-05-06T11:39:55.877Z,35.94
2019-05-06T11:42:32.506Z,35.94
2019-05-06T11:45:03.001Z,35.98
2019-05-06T11:47:35.293Z,36.37
2019-05-06T11:50:09.565Z,36.13
2019-05-06T11:52:43.454Z,36.36
2019-05-06T11:55:27.998Z,36.36
2019-05-06T11:57:47.947Z,36.43
2019-05-06T12:00:23.970Z,36.15
2019-05-06T12:02:56.331Z,35.55
2019-05-06T12:05:28.868Z,36.08
2019-05-06T12:08:08.223Z,36.29
2019-05-06T12:10:39.396Z,35.92
2019-05-06T12:13:12.226Z,35.92
2019-05-06T12:15:45.353Z,36.02
2019-05-06T12:18:17.886Z,36.52
2019-05-06T12:20:52.586Z,36.44
2019-05-06T12:23:23.928Z,35.75
2019-05-06T12:25:56.291Z,35.75
2019-05-06T12:28:28.833Z,36.16
2019-05-06T12:31:01.332Z,35.37
2019-05-06T12:33:44.339Z,36.00
2019-05-06T12:36:24.845Z,36.14
2019-05-06T12:39:17.546Z,36.22
2019-05-06T12:42:07.797Z,35.65
2019-05-06T12:44:41.854Z,36.37
2019-05-06T12:47:48.569Z,36.38
2019-05-06T12:50:22.716Z,36.36
2019-05-06T12:52:57.747Z,36.11
2019-05-06T12:55:28.827Z,35.72
2019-05-06T12:58:02.931Z,35.72
2019-05-06T13:00:35.292Z,35.53
2019-05-06T13:03:07.804Z,35.27
2019-05-06T13:05:39.815Z,36.09
2019-05-06T13:08:18.974Z,36.49
2019-05-06T13:10:45.905Z,36.30
2019-05-06T13:13:18.155Z,36.04
2019-05-06T13:15:52.776Z,35.75
2019-05-06T13:18:25.041Z,35.51
2019-05-06T13:20:57.874Z,35.51
2019-05-06T13:23:48.801Z,36.32
2019-05-06T13:26:23.867Z,35.31
2019-05-06T13:28:59.706Z,35.38
2019-05-06T13:31:32.600Z,36.38
2019-05-06T13:34:23.647Z,36.37
2019-05-06T13:36:55.875Z,34.88
2019-05-06T13:39:27.978Z,36.47
2019-05-06T13:42:00.477Z,36.61
2019-05-06T13:44:32.838Z,36.68
2019-05-06T13:47:05.347Z,36.73
2019-05-06T13:50:02.926Z,36.53
2019-05-06T13:52:42.405Z,36.66
2019-05-06T13:55:14.853Z,36.79
2019-05-06T13:57:46.860Z,36.77
2019-05-06T14:00:22.557Z,36.28
2019-05-06T14:02:57.683Z,36.98
2019-05-06T14:05:28.768Z,36.28
2019-05-06T14:08:04.220Z,36.74
2019-05-06T14:10:35.037Z,35.27
2019-05-06T14:13:08.325Z,35.27
2019-05-06T14:15:42.104Z,34.83
2019-05-06T14:18:14.855Z,34.67
2019-05-06T14:20:47.314Z,34.12
2019-05-06T14:23:22.045Z,32.49
2019-05-06T14:26:12.938Z,32.85
2019-05-06T14:28:55.332Z,32.03
2019-05-06T14:31:32.518Z,30.43
2019-05-06T14:34:04.468Z,30.79
2019-05-06T14:36:36.844Z,30.93
2019-05-06T14:39:17.069Z,33.57
2019-05-06T14:41:53.429Z,33.72
2019-05-06T14:44:25.824Z,33.52
2019-05-06T14:47:03.679Z,33.52
2019-05-06T14:49:34.726Z,32.58
2019-05-06T14:52:07.318Z,32.58
2019-05-06T14:54:54.346Z,33.63
2019-05-06T14:57:27.661Z,32.17
2019-05-06T14:59:59.926Z,33.30
2019-05-06T15:02:33.814Z,33.30
2019-05-06T15:05:06.275Z,30.25
2019-05-06T15:07:38.868Z,30.25
2019-05-06T15:10:20.451Z,32.76
2019-05-06T15:12:46.319Z,30.43
2019-05-06T15:15:18.898Z,30.19
2019-05-06T15:17:54.539Z,30.56
2019-05-06T15:20:28.385Z,33.24
2019-05-06T15:23:04.127Z,30.87
2019-05-06T15:25:33.097Z,32.79
2019-05-06T15:28:05.990Z,30.36
2019-05-06T15:30:55.332Z,31.87
2019-05-06T15:33:33.331Z,29.99
2019-05-06T15:36:16.376Z,33.48
2019-05-06T15:38:48.858Z,30.18
2019-05-06T15:41:22.301Z,31.38
2019-05-06T15:43:55.005Z,31.33
2019-05-06T15:46:27.905Z,32.11
2019-05-06T15:49:02.827Z,32.13
2019-05-06T15:51:38.288Z,35.10
2019-05-06T15:54:11.549Z,34.89
2019-05-06T15:56:44.022Z,34.59
2019-05-06T15:59:16.829Z,34.59
2019-05-06T16:01:49.341Z,35.33
2019-05-06T16:04:22.942Z,35.82
2019-05-06T16:06:55.473Z,35.28
2019-05-06T16:09:28.372Z,35.36
2019-05-06T16:12:02.973Z,35.50
2019-05-06T16:14:35.130Z,35.98
2019-05-06T16:17:08.369Z,35.88
2019-05-06T16:19:42.734Z,35.98
2019-05-06T16:22:14.978Z,35.74
2019-05-06T16:24:53.104Z,36.27
2019-05-06T16:27:25.874Z,36.09
2019-05-06T16:29:58.883Z,35.97
2019-05-06T16:32:33.180Z,35.82
2019-05-06T16:35:03.685Z,35.82
2019-05-06T16:37:37.446Z,36.27
2019-05-06T16:40:12.231Z,36.17
2019-05-06T16:42:46.067Z,36.20
2019-05-06T16:45:18.819Z,36.34
2019-05-06T16:47:52.388Z,36.34
2019-05-06T16:50:29.602Z,36.11
2019-05-06T16:53:02.730Z,36.51
2019-05-06T16:55:56.460Z,36.33
2019-05-06T16:58:32.371Z,36.63
2019-05-06T17:01:05.009Z,36.60
2019-05-06T17:03:55.777Z,36.07
2019-05-06T17:06:33.879Z,36.50
2019-05-06T17:09:18.347Z,36.01
2019-05-06T17:11:43.100Z,35.14
2019-05-06T17:14:15.865Z,36.00
2019-05-06T17:16:47.877Z,34.69
2019-05-06T17:19:20.328Z,34.21
2019-05-06T17:21:53.342Z,34.01
2019-05-06T17:24:25.864Z,32.95
2019-05-06T17:26:58.337Z,33.30
2019-05-06T17:29:53.348Z,33.23
2019-05-06T17:32:33.876Z,33.53
2019-05-06T17:35:06.898Z,32.91
2019-05-06T17:37:58.351Z,32.92
2019-05-06T17:40:32.701Z,32.64
2019-05-06T17:43:05.044Z,32.53
2019-05-06T17:45:58.326Z,32.53
2019-05-06T17:48:55.368Z,32.21
2019-05-06T17:51:33.808Z,33.12
2019-05-06T17:54:07.407Z,31.47
2019-05-06T17:56:41.789Z,31.22
2019-05-06T17:59:13.932Z,32.14
2019-05-06T18:01:49.331Z,32.14
2019-05-06T18:04:22.734Z,32.44
2019-05-06T18:06:55.829Z,32.71
2019-05-06T18:09:27.846Z,33.15
2019-05-06T18:12:00.907Z,35.07
2019-05-06T18:14:33.881Z,36.03
2019-05-06T18:17:05.898Z,36.03
2019-05-06T18:19:38.879Z,36.04
2019-05-06T18:22:12.975Z,35.99
2019-05-06T18:24:44.279Z,36.13
2019-05-06T18:27:16.864Z,35.14
2019-05-06T18:29:48.867Z,36.18
2019-05-06T18:32:23.399Z,36.11
2019-05-06T18:34:55.807Z,35.76
2019-05-06T18:37:28.320Z,35.98
2019-05-06T18:40:01.335Z,36.66
2019-05-06T18:42:34.450Z,36.55
2019-05-06T18:45:08.809Z,36.28
2019-05-06T18:47:42.249Z,36.52
2019-05-06T18:50:14.904Z,36.59
2019-05-06T18:52:47.864Z,36.46
2019-05-06T18:55:22.304Z,36.93
2019-05-06T18:57:55.575Z,36.83
2019-05-06T19:00:28.323Z,36.73
2019-05-06T19:03:02.714Z,36.73
2019-05-06T19:05:39.444Z,36.69
2019-05-06T19:08:21.970Z,36.92
2019-05-06T19:10:54.882Z,37.13
2019-05-06T19:13:26.831Z,37.01
2019-05-06T19:15:59.100Z,37.24
2019-05-06T19:18:32.332Z,37.26
2019-05-06T19:21:05.124Z,37.34
2019-05-06T19:23:37.367Z,37.38
2019-05-06T19:26:12.213Z,37.31
2019-05-06T19:28:43.147Z,37.46
2019-05-06T19:31:18.089Z,37.29
2019-05-06T19:33:52.607Z,37.38
2019-05-06T19:36:24.880Z,37.52
2019-05-06T19:38:57.062Z,37.52
2019-05-06T19:41:29.363Z,37.54
2019-05-06T19:44:02.202Z,37.56
2019-05-06T19:46:34.879Z,37.68
2019-05-06T19:49:07.860Z,37.81
2019-05-06T19:51:39.840Z,37.70
2019-05-06T19:54:12.627Z,37.89
2019-05-06T19:56:44.888Z,38.00
2019-05-06T19:59:16.856Z,37.64
2019-05-06T20:01:49.330Z,37.47
2019-05-06T20:04:22.811Z,37.81
2019-05-06T20:07:06.718Z,37.47
2019-05-06T20:09:54.539Z,38.04
2019-05-06T20:12:40.396Z,37.72
2019-05-06T20:15:30.493Z,37.72
2019-05-06T20:18:03.152Z,37.63
2019-05-06T20:20:35.852Z,37.33
2019-05-06T20:23:08.098Z,37.85
2019-05-06T20:25:42.584Z,37.58
2019-05-06T20:28:14.183Z,37.93
2019-05-06T20:30:46.528Z,38.16
2019-05-06T20:33:18.826Z,38.12
2019-05-06T20:35:52.553Z,37.85
2019-05-06T20:38:25.333Z,37.90
2019-05-06T20:40:57.869Z,37.99
2019-05-06T20:43:32.308Z,38.31
2019-05-06T20:46:04.332Z,38.11
2019-05-06T20:48:36.935Z,38.16
2019-05-06T20:51:08.847Z,37.83
2019-05-06T20:53:42.983Z,38.43
2019-05-06T20:56:14.834Z,38.23
2019-05-06T20:58:46.829Z,38.23
2019-05-06T21:01:18.859Z,37.94
2019-05-06T21:03:52.725Z,38.13
2019-05-06T21:06:24.280Z,37.78
2019-05-06T21:08:56.284Z,38.18
2019-05-06T21:11:29.356Z,37.69
2019-05-06T21:14:02.315Z,38.44
2019-05-06T21:16:34.869Z,38.44
2019-05-06T21:19:06.837Z,38.16
2019-05-06T21:21:38.929Z,38.20
2019-05-06T21:24:12.921Z,37.40
2019-05-06T21:26:50.548Z,38.39
2019-05-06T21:29:24.816Z,38.39
2019-05-06T21:31:56.835Z,38.10
2019-05-06T21:34:29.003Z,38.21
2019-05-06T21:37:03.299Z,38.34
2019-05-06T21:39:35.913Z,38.37
2019-05-06T21:42:08.073Z,37.79
2019-05-06T21:44:42.825Z,38.29
2019-05-06T21:47:14.845Z,38.83
2019-05-06T21:49:47.043Z,38.36
2019-05-06T21:52:19.104Z,38.45
2019-05-06T21:54:52.540Z,38.37
2019-05-06T21:57:23.703Z,38.63
2019-05-06T21:59:54.697Z,38.86
2019-05-06T22:02:26.290Z,38.15
2019-05-06T22:05:02.663Z,38.33
2019-05-06T22:07:35.867Z,38.95
2019-05-06T22:10:08.884Z,38.78
2019-05-06T22:12:43.378Z,38.96
2019-05-06T22:15:15.323Z,38.93
2019-05-06T22:17:49.395Z,38.76
2019-05-06T22:20:23.736Z,38.92
2019-05-06T22:22:55.921Z,39.09
2019-05-06T22:25:28.337Z,39.09
2019-05-06T22:28:02.369Z,38.78
2019-05-06T22:30:34.862Z,38.97
2019-05-06T22:33:06.936Z,38.82
2019-05-06T22:35:38.928Z,38.92
2019-05-06T22:38:12.337Z,38.66
2019-05-06T22:40:45.033Z,39.32
2019-05-06T22:43:17.340Z,39.32
2019-05-06T22:45:49.851Z,39.23
2019-05-06T22:48:23.628Z,39.06
2019-05-06T22:50:55.888Z,39.50
2019-05-06T22:53:27.819Z,39.50
2019-05-06T22:56:02.653Z,38.60
2019-05-06T22:58:34.882Z,39.28
2019-05-06T23:01:13.043Z,39.43
2019-05-06T23:03:46.630Z,38.97
2019-05-06T23:06:19.185Z,39.48
2019-05-06T23:08:56.220Z,39.48
2019-05-06T23:11:28.834Z,39.54
2019-05-06T23:14:02.736Z,39.05
2019-05-06T23:16:35.022Z,38.76
2019-05-06T23:19:08.329Z,38.63
2019-05-06T23:21:43.098Z,38.65
2019-05-06T23:24:14.909Z,39.45
2019-05-06T23:26:46.891Z,39.45
2019-05-06T23:29:18.894Z,39.22
2019-05-06T23:31:52.107Z,39.42
2019-05-06T23:34:25.337Z,39.36
2019-05-06T23:37:23.827Z,39.22
2019-05-06T23:41:09.077Z,39.51
2019-05-06T23:44:54.759Z,39.72
2019-05-06T23:48:40.362Z,39.17
2019-05-06T23:52:25.882Z,40.01
2019-05-06T23:56:10.684Z,39.89
2019-05-06T23:58:43.503Z,39.26
